Time;durP1;ratioP1;P1;durP2;ratioP2;P2;SDS_P1;SDS_P2;PMS_P1;PMS_P2;Temp;Humidity;BMP_temperature;BMP_pressure;BME280_temperature;BME280_humidity;BME280_pressure;Samples;Min_cycle;Max_cycle;Signal;HPM_P1;HPM_P2
2023/12/01 00:00:54;;;;;;;17.57;14.00;;;;;;;1.59;100.00;151775.47;4991929;28;20438;-85
2023/12/01 00:03:20;;;;;;;18.87;15.50;;;;;;;1.61;100.00;151780.59;4986604;28;20467;-85
2023/12/01 00:05:48;;;;;;;20.10;15.57;;;;;;;1.65;100.00;151790.84;4988673;28;20878;-85
2023/12/01 00:08:15;;;;;;;19.47;15.97;;;;;;;1.65;100.00;151790.84;4996246;28;20465;-85
2023/12/01 00:10:41;;;;;;;22.67;16.43;;;;;;;1.64;100.00;151789.56;4993334;28;20460;-85
2023/12/01 00:13:08;;;;;;;22.80;17.33;;;;;;;1.67;100.00;151797.28;4990114;28;20445;-85
2023/12/01 00:15:34;;;;;;;21.33;15.20;;;;;;;1.67;100.00;151797.28;4989438;28;20457;-85
2023/12/01 00:18:01;;;;;;;19.30;14.80;;;;;;;1.70;100.00;151803.69;4994330;28;20437;-84
2023/12/01 00:20:27;;;;;;;18.00;14.20;;;;;;;1.71;100.00;151807.59;4992405;28;20503;-85
2023/12/01 00:22:55;;;;;;;15.90;11.70;;;;;;;1.70;100.00;151803.69;4989226;28;20472;-85
2023/12/01 00:25:21;;;;;;;20.20;15.13;;;;;;;1.68;100.00;151798.56;4998153;28;20473;-86
2023/12/01 00:27:48;;;;;;;22.57;15.27;;;;;;;1.68;100.00;151799.88;4981151;28;20480;-85
2023/12/01 00:30:15;;;;;;;20.07;16.30;;;;;;;1.72;100.00;151808.88;4994510;28;20512;-86
2023/12/01 00:32:41;;;;;;;17.93;14.23;;;;;;;1.73;100.00;151811.41;4992989;28;20449;-85
2023/12/01 00:35:08;;;;;;;20.80;16.20;;;;;;;1.74;100.00;151815.31;4991332;28;20528;-85
2023/12/01 00:37:35;;;;;;;18.20;15.00;;;;;;;1.76;100.00;151819.13;4987480;28;20457;-85
2023/12/01 00:40:06;;;;;;;19.83;15.30;;;;;;;1.78;100.00;151824.25;4989914;28;20537;-85
2023/12/01 00:42:33;;;;;;;18.13;14.93;;;;;;;1.80;100.00;151830.69;4999121;28;20481;-85
2023/12/01 00:45:00;;;;;;;20.57;15.37;;;;;;;1.83;100.00;151837.13;4991051;28;20453;-85
2023/12/01 00:47:27;;;;;;;21.70;15.80;;;;;;;1.88;100.00;151849.97;4983522;28;20476;-85
2023/12/01 00:49:54;;;;;;;19.50;15.27;;;;;;;1.91;100.00;151857.69;4989292;28;20442;-85
2023/12/01 00:52:20;;;;;;;22.67;16.23;;;;;;;1.92;100.00;151860.28;4990390;28;20539;-85
2023/12/01 00:54:47;;;;;;;18.40;15.10;;;;;;;1.93;100.00;151861.56;4990856;28;20473;-85
2023/12/01 00:57:14;;;;;;;18.17;14.80;;;;;;;1.97;100.00;151873.13;4983882;28;20468;-85
2023/12/01 00:59:41;;;;;;;21.53;15.60;;;;;;;1.93;100.00;151862.88;4990287;28;20991;-85
2023/12/01 01:02:08;;;;;;;19.97;14.87;;;;;;;1.95;100.00;151868.00;4963124;28;20449;-84
2023/12/01 01:04:34;;;;;;;17.20;13.07;;;;;;;1.93;100.00;151862.88;4987712;28;20445;-84
2023/12/01 01:07:02;;;;;;;17.00;13.07;;;;;;;1.91;100.00;151857.69;4984383;28;20481;-84
2023/12/01 01:09:29;;;;;;;20.50;14.53;;;;;;;1.89;100.00;151852.56;4986455;28;20587;-84
2023/12/01 01:11:55;;;;;;;17.10;14.10;;;;;;;1.86;100.00;151844.84;4981171;28;20927;-84
2023/12/01 01:14:23;;;;;;;18.77;14.70;;;;;;;1.81;100.00;151832.00;4986546;28;20805;-84
2023/12/01 01:16:50;;;;;;;16.67;13.70;;;;;;;1.80;100.00;151830.69;4985959;28;20452;-84
2023/12/01 01:19:16;;;;;;;18.87;14.47;;;;;;;1.79;100.00;151826.84;4998994;28;20457;-84
2023/12/01 01:21:43;;;;;;;19.57;14.47;;;;;;;1.78;100.00;151825.56;4982936;28;20463;-84
2023/12/01 01:24:10;;;;;;;17.03;14.10;;;;;;;1.74;100.00;151814.00;4991698;28;20453;-83
2023/12/01 01:26:37;;;;;;;15.90;13.57;;;;;;;1.75;100.00;151816.56;4972635;28;20449;-84
2023/12/01 01:29:03;;;;;;;15.67;13.30;;;;;;;1.72;100.00;151808.88;4982163;28;20449;-84
2023/12/01 01:31:31;;;;;;;16.70;13.70;;;;;;;1.65;100.00;151790.84;4989913;28;20461;-84
2023/12/01 01:33:58;;;;;;;19.43;14.20;;;;;;;1.59;100.00;151776.72;4989101;28;20905;-84
2023/12/01 01:36:25;;;;;;;17.57;14.30;;;;;;;1.60;100.00;151778.00;4989533;28;20560;-84
2023/12/01 01:38:51;;;;;;;18.80;14.50;;;;;;;1.55;100.00;151766.47;4973668;28;20561;-84
2023/12/01 01:41:18;;;;;;;17.10;14.33;;;;;;;1.58;100.00;151772.88;4989139;28;20448;-84
2023/12/01 01:43:44;;;;;;;18.50;14.33;;;;;;;1.55;100.00;151765.16;4989581;28;20447;-84
2023/12/01 01:46:11;;;;;;;21.13;15.30;;;;;;;1.53;100.00;151761.34;4976827;28;20449;-85
2023/12/01 01:48:41;;;;;;;21.13;15.30;;;;;;;1.52;100.00;151757.44;4957023;28;20466;-85
2023/12/01 01:51:09;;;;;;;21.50;14.87;;;;;;;1.50;100.00;151752.31;4968802;28;20442;-84
2023/12/01 01:53:36;;;;;;;20.60;15.27;;;;;;;1.48;100.00;151747.19;4986822;28;20483;-84
2023/12/01 01:56:03;;;;;;;19.37;15.20;;;;;;;1.44;100.00;151736.88;4982849;28;20537;-84
2023/12/01 01:58:29;;;;;;;18.70;15.60;;;;;;;1.42;100.00;151731.75;4986103;28;20930;-84
2023/12/01 02:00:56;;;;;;;19.70;14.60;;;;;;;1.40;100.00;151727.94;4971147;28;20469;-84
2023/12/01 02:03:23;;;;;;;17.90;14.13;;;;;;;1.39;100.00;151725.34;4989445;28;20549;-84
2023/12/01 02:05:52;;;;;;;16.10;12.80;;;;;;;1.35;100.00;151715.03;4974383;28;20454;-84
2023/12/01 02:08:25;;;;;;;19.00;14.10;;;;;;;1.35;100.00;151715.03;4957961;28;20470;-85
2023/12/01 02:10:53;;;;;;;19.90;15.00;;;;;;;1.35;100.00;151713.78;4989546;28;20461;-84
2023/12/01 02:13:20;;;;;;;22.03;15.73;;;;;;;1.35;100.00;151715.03;4980542;28;20449;-84
2023/12/01 02:15:47;;;;;;;20.53;15.50;;;;;;;1.35;100.00;151713.78;4994099;28;20808;-84
2023/12/01 02:18:21;;;;;;;23.27;17.13;;;;;;;1.33;100.00;151708.63;4979316;28;20460;-84
2023/12/01 02:20:48;;;;;;;23.70;17.03;;;;;;;1.32;100.00;151706.06;4976645;28;20460;-84
2023/12/01 02:23:16;;;;;;;24.13;16.20;;;;;;;1.32;100.00;151706.06;4986962;28;20516;-85
2023/12/01 02:25:42;;;;;;;18.67;14.93;;;;;;;1.31;100.00;151703.50;4992368;28;20449;-84
2023/12/01 02:28:09;;;;;;;27.93;18.93;;;;;;;1.28;100.00;151695.78;4988350;28;20952;-84
2023/12/01 02:30:35;;;;;;;23.00;15.60;;;;;;;1.26;100.00;151691.94;4992633;28;20457;-84
2023/12/01 02:33:02;;;;;;;17.20;13.47;;;;;;;1.27;100.00;151693.22;4994325;28;20469;-84
2023/12/01 02:35:29;;;;;;;18.87;15.07;;;;;;;1.26;100.00;151690.66;4992518;28;20861;-85
2023/12/01 02:37:56;;;;;;;19.40;15.23;;;;;;;1.26;100.00;151690.66;4991064;28;20457;-84
2023/12/01 02:40:24;;;;;;;19.77;15.93;;;;;;;1.28;100.00;151697.06;5008251;28;20445;-84
2023/12/01 02:42:51;;;;;;;19.50;15.27;;;;;;;1.26;100.00;151691.94;4975810;28;20514;-84
2023/12/01 02:45:18;;;;;;;19.73;15.70;;;;;;;1.24;100.00;151688.06;4990796;28;20818;-84
2023/12/01 02:47:47;;;;;;;21.00;16.17;;;;;;;1.23;100.00;151684.22;4999326;28;20484;-84
2023/12/01 02:50:14;;;;;;;19.67;16.03;;;;;;;1.19;100.00;151675.22;4991999;28;20437;-84
2023/12/01 02:52:41;;;;;;;20.50;15.63;;;;;;;1.17;100.00;151670.09;4982846;28;20472;-84
2023/12/01 02:55:09;;;;;;;20.73;15.10;;;;;;;1.18;100.00;151672.69;4991186;28;20917;-85
2023/12/01 02:57:37;;;;;;;17.50;14.60;;;;;;;1.18;100.00;151672.69;4985917;28;20999;-84
2023/12/01 03:00:06;;;;;;;17.90;14.93;;;;;;;1.18;100.00;151671.38;4988410;28;20454;-84
2023/12/01 03:02:33;;;;;;;17.00;14.47;;;;;;;1.16;100.00;151667.56;4964970;28;20445;-84
2023/12/01 03:05:00;;;;;;;23.53;17.30;;;;;;;1.16;100.00;151667.56;4991526;28;20464;-84
2023/12/01 03:07:26;;;;;;;22.10;15.40;;;;;;;1.17;100.00;151668.78;4979814;28;20465;-84
2023/12/01 03:09:53;;;;;;;20.13;15.73;;;;;;;1.15;100.00;151664.97;4974211;28;20459;-84
2023/12/01 03:12:20;;;;;;;20.23;16.00;;;;;;;1.15;100.00;151664.97;4991054;28;20956;-84
2023/12/01 03:14:48;;;;;;;18.50;15.10;;;;;;;1.13;100.00;151659.84;4997225;28;20829;-84
2023/12/01 03:17:15;;;;;;;22.83;17.20;;;;;;;1.12;100.00;151657.25;4974948;28;20454;-85
2023/12/01 03:19:45;;;;;;;19.40;15.17;;;;;;;1.10;100.00;151650.84;4985872;28;20452;-84
2023/12/01 03:22:12;;;;;;;21.30;15.90;;;;;;;1.11;100.00;151654.66;4970196;28;20514;-84
2023/12/01 03:24:38;;;;;;;20.90;15.47;;;;;;;1.13;100.00;151658.53;4993459;28;20445;-84
2023/12/01 03:27:05;;;;;;;20.43;16.60;;;;;;;1.13;100.00;151659.84;4992819;28;20453;-84
2023/12/01 03:29:32;;;;;;;19.80;15.13;;;;;;;1.13;100.00;151659.84;4980005;28;20472;-84
2023/12/01 03:32:00;;;;;;;18.20;14.63;;;;;;;1.18;100.00;151672.69;4994671;28;20453;-84
2023/12/01 03:34:27;;;;;;;20.57;15.30;;;;;;;1.18;100.00;151672.69;4974475;28;20495;-84
2023/12/01 03:36:53;;;;;;;20.43;14.97;;;;;;;1.20;100.00;151677.81;4988420;28;20449;-84
2023/12/01 03:39:21;;;;;;;21.53;14.87;;;;;;;1.20;100.00;151677.81;4999205;28;20442;-84
2023/12/01 03:41:48;;;;;;;20.20;15.33;;;;;;;1.20;100.00;151677.81;4991521;28;20442;-84
2023/12/01 03:44:15;;;;;;;18.43;14.57;;;;;;;1.19;100.00;151675.22;4992284;28;20490;-84
2023/12/01 03:46:44;;;;;;;16.53;12.80;;;;;;;1.19;100.00;151675.22;4990195;28;20461;-84
2023/12/01 03:49:12;;;;;;;18.73;14.10;;;;;;;1.18;100.00;151672.69;4987330;28;20473;-84
2023/12/01 03:51:39;;;;;;;21.00;15.37;;;;;;;1.14;100.00;151662.38;4987136;28;20470;-84
2023/12/01 03:54:06;;;;;;;17.13;14.37;;;;;;;1.15;100.00;151664.97;4996102;28;20829;-84
2023/12/01 03:56:36;;;;;;;20.77;15.00;;;;;;;1.17;100.00;151670.09;4974477;28;20461;-84
2023/12/01 03:59:09;;;;;;;20.40;14.13;;;;;;;1.15;100.00;151664.97;4982735;28;20945;-83
2023/12/01 04:01:37;;;;;;;19.40;14.87;;;;;;;1.15;100.00;151663.66;4979069;28;20522;-83
2023/12/01 04:04:04;;;;;;;17.40;13.50;;;;;;;1.14;100.00;151662.38;4981687;28;20465;-84
2023/12/01 04:06:32;;;;;;;17.27;14.33;;;;;;;1.13;100.00;151659.84;4989901;28;20826;-83
2023/12/01 04:09:05;;;;;;;18.30;13.90;;;;;;;1.08;100.00;151647.00;4975016;28;20930;-83
2023/12/01 04:11:31;;;;;;;18.97;14.20;;;;;;;1.06;100.00;151641.81;4993606;28;20959;-84
2023/12/01 04:13:57;;;;;;;20.40;14.57;;;;;;;1.07;100.00;151644.41;5011551;28;20451;-83
2023/12/01 04:16:24;;;;;;;17.40;14.27;;;;;;;1.08;100.00;151647.00;5010151;28;20783;-83
2023/12/01 04:18:51;;;;;;;20.17;14.70;;;;;;;1.07;100.00;151643.13;5001950;28;20438;-83
2023/12/01 04:21:18;;;;;;;20.07;14.40;;;;;;;1.07;100.00;151643.13;4990899;28;20860;-83
2023/12/01 04:23:46;;;;;;;18.17;14.83;;;;;;;1.05;100.00;151638.00;5004809;28;20504;-84
2023/12/01 04:26:12;;;;;;;17.03;14.27;;;;;;;1.06;100.00;151641.81;4988396;28;20455;-83
2023/12/01 04:28:39;;;;;;;19.83;14.23;;;;;;;1.06;100.00;151641.81;4982289;28;20561;-83
2023/12/01 04:31:06;;;;;;;19.40;14.27;;;;;;;1.05;100.00;151639.28;4990941;28;20500;-83
2023/12/01 04:33:32;;;;;;;18.93;16.10;;;;;;;1.04;100.00;151636.69;4989529;28;20446;-84
2023/12/01 04:35:59;;;;;;;18.67;14.40;;;;;;;1.04;100.00;151636.69;4996324;28;20437;-84
2023/12/01 04:38:26;;;;;;;19.23;15.20;;;;;;;1.05;100.00;151639.28;4987857;28;20907;-84
2023/12/01 04:40:54;;;;;;;18.90;14.10;;;;;;;1.03;100.00;151634.09;5008818;28;20447;-83
2023/12/01 04:43:21;;;;;;;19.20;15.07;;;;;;;1.01;100.00;151628.97;4990960;28;20454;-84
2023/12/01 04:45:47;;;;;;;21.77;16.10;;;;;;;0.99;100.00;151622.56;4991006;28;20838;-83
2023/12/01 04:48:14;;;;;;;17.70;14.47;;;;;;;1.00;100.00;151626.44;4983357;28;20481;-84
2023/12/01 04:50:47;;;;;;;21.07;15.40;;;;;;;1.02;100.00;151630.28;4989632;28;20456;-84
2023/12/01 04:53:14;;;;;;;18.80;15.20;;;;;;;1.03;100.00;151634.09;4984878;28;20490;-84
2023/12/01 04:55:40;;;;;;;18.57;14.50;;;;;;;1.03;100.00;151634.09;4985569;28;20454;-84
2023/12/01 04:58:08;;;;;;;19.93;14.77;;;;;;;1.02;100.00;151630.28;4988239;28;20461;-83
2023/12/01 05:00:35;;;;;;;19.13;15.03;;;;;;;1.00;100.00;151626.44;4988573;28;20457;-83
2023/12/01 05:03:04;;;;;;;19.30;14.90;;;;;;;0.97;100.00;151618.72;4986884;28;20965;-84
2023/12/01 05:05:32;;;;;;;17.40;13.60;;;;;;;0.96;100.00;151616.16;4982809;28;20536;-83
2023/12/01 05:07:59;;;;;;;17.17;14.37;;;;;;;0.95;100.00;151613.59;4989056;28;20445;-84
2023/12/01 05:10:29;;;;;;;16.97;14.20;;;;;;;0.94;100.00;151611.03;4975284;28;20496;-83
2023/12/01 05:12:56;;;;;;;18.40;13.87;;;;;;;0.95;100.00;151612.31;4980981;28;20450;-83
2023/12/01 05:15:26;;;;;;;17.90;13.73;;;;;;;0.94;100.00;151611.03;4990680;28;20488;-83
2023/12/01 05:17:54;;;;;;;16.57;14.73;;;;;;;0.93;100.00;151608.44;4989563;28;20442;-83
2023/12/01 05:20:25;;;;;;;16.63;13.60;;;;;;;0.93;100.00;151608.44;4985747;28;20868;-83
2023/12/01 05:22:53;;;;;;;17.67;13.40;;;;;;;0.97;100.00;151618.72;4995977;28;20517;-83
2023/12/01 05:25:21;;;;;;;17.20;13.20;;;;;;;0.95;100.00;151612.31;4969539;28;20435;-83
2023/12/01 05:27:49;;;;;;;17.60;13.83;;;;;;;0.94;100.00;151609.72;4971353;28;20873;-84
2023/12/01 05:30:17;;;;;;;18.53;12.97;;;;;;;0.94;100.00;151609.72;4987883;28;20555;-83
2023/12/01 05:32:46;;;;;;;16.63;14.20;;;;;;;0.93;100.00;151608.44;4980968;28;20908;-83
2023/12/01 05:35:14;;;;;;;18.60;14.67;;;;;;;0.94;100.00;151609.72;4990741;28;20441;-84
2023/12/01 05:37:41;;;;;;;15.73;11.97;;;;;;;0.89;100.00;151598.19;4984701;28;20553;-83
2023/12/01 05:40:09;;;;;;;17.30;12.57;;;;;;;0.85;100.00;151587.88;4990560;28;20802;-83
2023/12/01 05:42:36;;;;;;;16.17;12.63;;;;;;;0.84;100.00;151585.34;4989189;28;20516;-84
2023/12/01 05:45:04;;;;;;;17.00;13.13;;;;;;;0.84;100.00;151585.34;5005684;28;20953;-84
2023/12/01 05:47:31;;;;;;;16.73;12.70;;;;;;;0.85;100.00;151587.88;4979920;28;20454;-84
2023/12/01 05:49:59;;;;;;;16.80;14.07;;;;;;;0.85;100.00;151586.63;4977941;28;20477;-83
2023/12/01 05:52:25;;;;;;;18.00;13.30;;;;;;;0.84;100.00;151584.06;4990447;28;20937;-84
2023/12/01 05:54:52;;;;;;;16.70;12.40;;;;;;;0.87;100.00;151593.06;4989693;28;20535;-83
2023/12/01 05:57:19;;;;;;;17.60;13.20;;;;;;;0.87;100.00;151593.06;4986094;28;20935;-83
2023/12/01 05:59:46;;;;;;;14.90;12.50;;;;;;;0.89;100.00;151598.19;5002167;28;20444;-84
2023/12/01 06:02:12;;;;;;;17.40;12.67;;;;;;;0.89;100.00;151596.88;4982864;28;20984;-83
2023/12/01 06:04:39;;;;;;;18.23;13.40;;;;;;;0.90;100.00;151600.72;4992998;28;20519;-84
2023/12/01 06:07:07;;;;;;;15.33;13.33;;;;;;;0.89;100.00;151598.19;4988501;28;20538;-84
2023/12/01 06:09:35;;;;;;;17.87;12.43;;;;;;;0.90;100.00;151599.47;4993876;28;20495;-83
2023/12/01 06:12:02;;;;;;;12.60;11.30;;;;;;;0.91;100.00;151603.31;4993905;28;20445;-83
2023/12/01 06:14:28;;;;;;;14.43;11.83;;;;;;;0.91;100.00;151602.00;4995430;28;20491;-83
2023/12/01 06:16:55;;;;;;;13.20;11.70;;;;;;;0.89;100.00;151598.19;4994752;28;20450;-83
2023/12/01 06:19:21;;;;;;;15.93;12.23;;;;;;;0.86;100.00;151590.47;4994900;28;20465;-83
2023/12/01 06:21:48;;;;;;;12.67;11.37;;;;;;;0.86;100.00;151590.47;4996968;28;20457;-83
2023/12/01 06:24:16;;;;;;;14.30;11.03;;;;;;;0.87;100.00;151593.06;4995544;28;20449;-83
2023/12/01 06:26:42;;;;;;;12.10;10.13;;;;;;;0.85;100.00;151587.88;4997498;28;20466;-82
2023/12/01 06:29:08;;;;;;;16.90;11.00;;;;;;;0.84;100.00;151585.34;4994755;28;20534;-82
2023/12/01 06:31:35;;;;;;;13.90;10.60;;;;;;;0.86;100.00;151590.47;5000858;28;20549;-83
2023/12/01 06:34:01;;;;;;;13.87;11.10;;;;;;;0.88;100.00;151594.31;4994250;28;20516;-83
2023/12/01 06:36:28;;;;;;;13.53;11.30;;;;;;;0.88;100.00;151594.31;4998300;28;20464;-83
2023/12/01 06:38:55;;;;;;;13.90;9.90;;;;;;;0.87;100.00;151593.06;4992633;28;20975;-82
2023/12/01 06:41:23;;;;;;;14.70;10.80;;;;;;;0.88;100.00;151595.59;4985735;28;20546;-83
2023/12/01 06:43:49;;;;;;;11.93;9.90;;;;;;;0.88;100.00;151594.31;4979223;28;20839;-82
2023/12/01 06:46:16;;;;;;;15.30;11.00;;;;;;;0.87;100.00;151591.75;4993068;28;20472;-83
2023/12/01 06:48:43;;;;;;;13.03;10.53;;;;;;;0.88;100.00;151594.31;4994440;28;20831;-83
2023/12/01 06:51:09;;;;;;;13.00;10.07;;;;;;;0.86;100.00;151590.47;4997388;28;20456;-83
2023/12/01 06:53:36;;;;;;;12.30;10.33;;;;;;;0.88;100.00;151594.31;4997875;28;20492;-83
2023/12/01 06:56:02;;;;;;;14.20;10.17;;;;;;;0.86;100.00;151589.19;4980537;28;20481;-83
2023/12/01 06:58:32;;;;;;;17.47;11.57;;;;;;;0.88;100.00;151595.59;4998886;28;20562;-83
2023/12/01 07:01:00;;;;;;;14.10;11.07;;;;;;;0.88;100.00;151595.59;4995096;28;20856;-83
2023/12/01 07:03:29;;;;;;;14.20;10.87;;;;;;;0.90;100.00;151600.72;4996539;28;20518;-83
2023/12/01 07:05:56;;;;;;;14.33;10.93;;;;;;;0.90;100.00;151600.72;4998806;28;20464;-83
2023/12/01 07:08:23;;;;;;;13.30;10.17;;;;;;;0.91;100.00;151603.31;5000883;28;20562;-83
2023/12/01 07:10:49;;;;;;;16.17;11.00;;;;;;;0.93;100.00;151607.13;4995659;28;20441;-83
2023/12/01 07:13:16;;;;;;;16.67;12.03;;;;;;;0.89;100.00;151598.19;5000335;28;21231;-83
2023/12/01 07:15:47;;;;;;;15.30;11.50;;;;;;;0.92;100.00;151605.91;4996880;28;20552;-84
2023/12/01 07:18:19;;;;;;;14.87;11.10;;;;;;;0.92;100.00;151605.91;4996393;28;20534;-83
2023/12/01 07:20:52;;;;;;;16.17;12.27;;;;;;;0.92;100.00;151604.59;4997622;28;20445;-84
2023/12/01 07:23:19;;;;;;;14.37;11.37;;;;;;;0.90;100.00;151599.47;4998482;28;21035;-84
2023/12/01 07:25:47;;;;;;;15.20;11.70;;;;;;;0.90;100.00;151599.47;4998937;28;20986;-84
2023/12/01 07:28:14;;;;;;;12.63;10.23;;;;;;;0.92;100.00;151604.59;4993926;28;20995;-84
2023/12/01 07:30:44;;;;;;;13.03;10.87;;;;;;;0.91;100.00;151603.31;4983095;28;20555;-83
2023/12/01 07:33:11;;;;;;;13.50;10.53;;;;;;;0.91;100.00;151603.31;4995449;28;20567;-87
2023/12/01 07:35:38;;;;;;;14.20;11.00;;;;;;;0.89;100.00;151598.19;4986895;28;20448;-84
2023/12/01 07:38:05;;;;;;;13.87;10.67;;;;;;;0.91;100.00;151603.31;4997803;28;20518;-83
2023/12/01 07:40:32;;;;;;;14.83;11.40;;;;;;;0.94;100.00;151609.72;4999768;28;20449;-83
2023/12/01 07:42:59;;;;;;;12.90;9.70;;;;;;;0.91;100.00;151603.31;4997913;28;20460;-84
2023/12/01 07:45:26;;;;;;;10.57;9.47;;;;;;;0.90;100.00;151600.72;4996309;28;20465;-83
2023/12/01 07:47:55;;;;;;;12.97;9.80;;;;;;;0.89;100.00;151598.19;4995815;28;20992;-83
2023/12/01 07:50:22;;;;;;;15.30;10.70;;;;;;;0.89;100.00;151596.88;4997622;28;20874;-83
2023/12/01 07:52:50;;;;;;;14.07;10.67;;;;;;;0.90;100.00;151599.47;4999312;28;20452;-83
2023/12/01 07:55:18;;;;;;;14.27;10.53;;;;;;;0.89;100.00;151598.19;4999421;28;20521;-84
2023/12/01 07:57:44;;;;;;;14.00;10.27;;;;;;;0.88;100.00;151595.59;4994647;28;20462;-83
2023/12/01 08:00:14;;;;;;;13.10;9.87;;;;;;;0.86;100.00;151590.47;4991825;28;20484;-84
2023/12/01 08:02:40;;;;;;;13.10;9.60;;;;;;;0.87;100.00;151593.06;4997084;28;20453;-83
2023/12/01 08:05:13;;;;;;;17.00;10.70;;;;;;;0.89;100.00;151596.88;4997392;28;20526;-83
2023/12/01 08:07:40;;;;;;;12.53;9.53;;;;;;;0.89;100.00;151598.19;4981523;28;20458;-83
2023/12/01 08:10:09;;;;;;;14.03;10.63;;;;;;;0.86;100.00;151590.47;4998168;28;20481;-83
2023/12/01 08:12:35;;;;;;;10.47;9.00;;;;;;;0.88;100.00;151594.31;4990137;28;20472;-83
2023/12/01 08:15:02;;;;;;;13.17;10.17;;;;;;;0.89;100.00;151598.19;4996021;28;20457;-83
2023/12/01 08:17:29;;;;;;;13.77;10.87;;;;;;;0.89;100.00;151598.19;4996185;28;20489;-83
2023/12/01 08:19:55;;;;;;;14.07;10.20;;;;;;;0.88;100.00;151595.59;4998852;28;20872;-83
2023/12/01 08:22:23;;;;;;;14.47;9.90;;;;;;;0.88;100.00;151595.59;4998630;28;21095;-83
2023/12/01 08:24:50;;;;;;;14.27;10.13;;;;;;;0.86;100.00;151590.47;4986317;28;20469;-83
2023/12/01 08:27:23;;;;;;;15.20;10.30;;;;;;;0.84;100.00;151585.34;4998258;28;20453;-83
2023/12/01 08:29:51;;;;;;;13.70;9.73;;;;;;;0.86;100.00;151590.47;4991977;28;20484;-83
2023/12/01 08:32:17;;;;;;;13.60;10.10;;;;;;;0.88;100.00;151595.59;4996508;28;20454;-83
2023/12/01 08:34:44;;;;;;;14.53;10.47;;;;;;;0.90;100.00;151600.72;4996043;28;20455;-83
2023/12/01 08:37:11;;;;;;;13.53;10.37;;;;;;;0.89;100.00;151598.19;4995222;28;20452;-83
2023/12/01 08:39:39;;;;;;;13.00;9.80;;;;;;;0.91;100.00;151602.00;4995717;28;20457;-83
2023/12/01 08:42:05;;;;;;;15.50;10.63;;;;;;;0.90;100.00;151600.72;4976262;28;20461;-84
2023/12/01 08:44:32;;;;;;;14.10;10.20;;;;;;;0.91;100.00;151603.31;4992952;28;20523;-83
2023/12/01 08:46:58;;;;;;;13.60;9.57;;;;;;;0.95;100.00;151612.31;4991634;28;20939;-84
2023/12/01 08:49:25;;;;;;;13.50;9.73;;;;;;;0.96;100.00;151616.16;4995183;28;20485;-84
2023/12/01 08:51:55;;;;;;;15.17;10.47;;;;;;;0.96;100.00;151614.84;4993856;28;20456;-84
2023/12/01 08:54:21;;;;;;;14.13;9.60;;;;;;;0.96;100.00;151616.16;4995117;28;20503;-84
2023/12/01 08:56:50;;;;;;;16.10;10.30;;;;;;;1.00;100.00;151626.44;4994194;28;20460;-84
2023/12/01 08:59:18;;;;;;;13.37;9.83;;;;;;;0.96;100.00;151616.16;4995733;28;20511;-84
2023/12/01 09:01:45;;;;;;;10.70;8.83;;;;;;;0.98;100.00;151621.28;4981047;28;20614;-84
2023/12/01 09:04:12;;;;;;;11.93;8.83;;;;;;;0.96;100.00;151616.16;4997459;28;20460;-83
2023/12/01 09:07:16;;;;;;;12.40;8.57;;;;;;;1.02;100.00;151631.56;4995137;28;20495;-83
2023/12/01 09:10:22;;;;;;;12.00;8.87;;;;;;;1.02;100.00;151630.28;4991888;28;20513;-83
2023/12/01 09:13:10;;;;;;;14.00;9.97;;;;;;;1.04;100.00;151636.69;4996293;28;20592;-84
2023/12/01 09:15:36;;;;;;;13.47;10.10;;;;;;;1.04;100.00;151635.41;4995264;28;20463;-84
2023/12/01 09:18:03;;;;;;;17.90;11.47;;;;;;;1.08;100.00;151647.00;4993551;28;20445;-84
2023/12/01 09:20:29;;;;;;;13.60;10.20;;;;;;;1.06;100.00;151640.56;4995113;28;20494;-84
2023/12/01 09:22:56;;;;;;;14.60;10.27;;;;;;;1.04;100.00;151636.69;4992931;28;20537;-84
2023/12/01 09:25:23;;;;;;;26.70;13.97;;;;;;;1.04;100.00;151635.41;4994508;28;20564;-84
2023/12/01 09:27:49;;;;;;;18.77;11.10;;;;;;;1.06;100.00;151641.81;4964054;28;20457;-84
2023/12/01 09:30:18;;;;;;;21.13;14.83;;;;;;;1.12;100.00;151657.25;4996348;28;20485;-84
2023/12/01 09:32:45;;;;;;;18.43;12.70;;;;;;;1.14;100.00;151662.38;4979849;28;20538;-85
2023/12/01 09:35:12;;;;;;;13.53;9.67;;;;;;;1.16;100.00;151666.25;4995390;28;20459;-84
2023/12/01 09:37:38;;;;;;;9.97;8.07;;;;;;;1.17;100.00;151670.09;4996679;28;20458;-85
2023/12/01 09:40:07;;;;;;;13.90;9.57;;;;;;;1.13;100.00;151659.84;4996366;28;20483;-85
2023/12/01 09:42:34;;;;;;;14.20;9.30;;;;;;;1.16;100.00;151667.56;4997332;28;20454;-85
2023/12/01 09:45:01;;;;;;;13.63;9.20;;;;;;;1.14;100.00;151662.38;4997923;28;20874;-84
2023/12/01 09:47:31;;;;;;;13.43;9.77;;;;;;;1.13;100.00;151659.84;4995399;28;20446;-84
2023/12/01 09:49:58;;;;;;;12.27;9.30;;;;;;;1.12;100.00;151655.97;4995266;28;20484;-84
2023/12/01 09:52:24;;;;;;;13.20;10.00;;;;;;;1.13;100.00;151659.84;4995939;28;20456;-84
2023/12/01 09:54:51;;;;;;;17.67;10.97;;;;;;;1.15;100.00;151663.66;4990752;28;21162;-84
2023/12/01 09:57:17;;;;;;;15.43;11.67;;;;;;;1.16;100.00;151667.56;4993321;28;20455;-84
2023/12/01 09:59:46;;;;;;;13.43;10.43;;;;;;;1.12;100.00;151657.25;4993934;28;20461;-84
2023/12/01 10:02:12;;;;;;;16.77;11.00;;;;;;;1.12;100.00;151657.25;4991242;28;20457;-84
2023/12/01 10:04:40;;;;;;;14.30;11.00;;;;;;;1.11;100.00;151654.66;4989632;28;20459;-85
2023/12/01 10:07:07;;;;;;;19.90;13.10;;;;;;;1.08;100.00;151647.00;4994462;28;20457;-85
2023/12/01 10:09:33;;;;;;;23.00;14.50;;;;;;;1.07;100.00;151644.41;4964412;28;20557;-85
2023/12/01 10:12:08;;;;;;;18.10;12.90;;;;;;;1.08;100.00;151647.00;4994003;28;20488;-85
2023/12/01 10:14:35;;;;;;;15.67;10.30;;;;;;;1.09;100.00;151648.25;4991655;28;20551;-85
2023/12/01 10:17:03;;;;;;;21.70;13.60;;;;;;;1.09;100.00;151649.53;4996929;28;20807;-85
2023/12/01 10:19:32;;;;;;;22.73;14.97;;;;;;;1.06;100.00;151641.81;4993358;28;20452;-85
2023/12/01 10:22:00;;;;;;;22.70;13.57;;;;;;;1.07;100.00;151644.41;4996214;28;20449;-85
2023/12/01 10:24:27;;;;;;;17.60;12.73;;;;;;;1.10;100.00;151650.84;4995676;28;20580;-85
2023/12/01 10:26:55;;;;;;;17.70;12.40;;;;;;;1.12;100.00;151657.25;4996119;28;20491;-85
2023/12/01 10:29:28;;;;;;;18.77;11.80;;;;;;;1.10;100.00;151652.13;4999129;28;20494;-85
2023/12/01 10:31:55;;;;;;;17.37;11.83;;;;;;;1.12;100.00;151657.25;4965546;28;20496;-85
2023/12/01 10:34:22;;;;;;;18.07;11.13;;;;;;;1.16;100.00;151666.25;4997379;28;20475;-85
2023/12/01 10:36:49;;;;;;;17.17;12.30;;;;;;;1.15;100.00;151663.66;4996588;28;20441;-85
2023/12/01 10:39:20;;;;;;;18.77;12.30;;;;;;;1.14;100.00;151662.38;4999212;28;20460;-85
2023/12/01 10:41:48;;;;;;;14.77;10.77;;;;;;;1.13;100.00;151658.53;4997583;28;20449;-85
2023/12/01 10:44:16;;;;;;;17.00;11.40;;;;;;;1.13;100.00;151659.84;4998385;28;20454;-84
2023/12/01 10:46:45;;;;;;;16.93;11.07;;;;;;;1.10;100.00;151650.84;4996896;28;20914;-85
2023/12/01 10:49:13;;;;;;;15.10;11.43;;;;;;;1.11;100.00;151654.66;4999272;28;20890;-86
2023/12/01 10:51:41;;;;;;;15.40;11.57;;;;;;;1.08;100.00;151647.00;4997489;28;21052;-86
2023/12/01 10:54:10;;;;;;;14.13;10.93;;;;;;;1.07;100.00;151644.41;5000044;28;20476;-84
2023/12/01 10:56:48;;;;;;;13.17;10.10;;;;;;;1.08;100.00;151645.69;4996439;28;20822;-84
2023/12/01 10:59:18;;;;;;;15.07;10.87;;;;;;;1.11;100.00;151654.66;4997815;28;20453;-83
2023/12/01 11:01:48;;;;;;;15.43;11.37;;;;;;;1.10;100.00;151652.13;4979653;28;20442;-84
2023/12/01 11:04:21;;;;;;;17.30;12.27;;;;;;;1.10;100.00;151650.84;4999680;28;20798;-83
2023/12/01 11:07:01;;;;;;;16.07;11.23;;;;;;;1.09;100.00;151648.25;4990434;28;20505;-84
2023/12/01 11:09:36;;;;;;;15.47;11.77;;;;;;;1.08;100.00;151647.00;4992627;28;20462;-84
2023/12/01 11:12:08;;;;;;;17.73;11.27;;;;;;;1.10;100.00;151652.13;4988682;28;20476;-84